Time,TemperatureF,DewpointF,PressureIn,WindDirection,WindDirectionDegrees,WindSpeedMPH,WindSpeedGustMPH,Humidity,HourlyPrecipIn,Conditions,Clouds,dailyrainin,SolarRadiationWatts/m^2,SoftwareType,DateUTC
2013-01-21 00:02:00,17.0,10.0,-100.00,SSE,160,4.0,10.0,72,0.00,,,0.00,1.000000,,2013-01-21 08:02:00,
2013-01-21 00:12:00,17.0,10.0,-100.00,SSE,160,4.0,10.0,72,0.00,,,0.00,1.000000,,2013-01-21 08:12:00,
2013-01-21 00:43:00,15.0,8.0,-100.00,South,189,3.0,10.0,74,0.00,,,0.00,1.000000,,2013-01-21 08:43:00,
2013-01-21 00:53:00,15.0,8.0,-100.00,South,189,3.0,10.0,74,0.00,,,0.00,1.000000,,2013-01-21 08:53:00,
2013-01-21 01:02:00,15.0,8.0,-100.00,South,189,3.0,10.0,74,0.00,,,0.00,1.000000,,2013-01-21 09:02:00,
2013-01-21 01:11:00,15.0,8.0,-100.00,South,189,3.0,10.0,74,0.00,,,0.00,1.000000,,2013-01-21 09:11:00,
2013-01-21 01:43:00,15.0,8.0,-100.00,SW,222,3.0,7.0,73,0.00,,,0.00,1.000000,,2013-01-21 09:43:00,
2013-01-21 01:53:00,15.0,8.0,-100.00,SW,222,3.0,7.0,73,0.00,,,0.00,1.000000,,2013-01-21 09:53:00,
2013-01-21 02:02:00,15.0,8.0,-100.00,SW,222,3.0,7.0,73,0.00,,,0.00,1.000000,,2013-01-21 10:02:00,
2013-01-21 02:12:00,15.0,8.0,-100.00,SW,222,3.0,7.0,73,0.00,,,0.00,1.000000,,2013-01-21 10:12:00,
2013-01-21 02:43:00,15.0,8.0,-100.00,South,179,7.0,10.0,73,0.00,,,-99.99,1.000000,,2013-01-21 10:43:00,
2013-01-21 02:52:00,15.0,8.0,-100.00,South,179,7.0,10.0,73,0.00,,,-99.99,1.000000,,2013-01-21 10:52:00,
2013-01-21 03:02:00,15.0,8.0,-100.00,South,179,7.0,10.0,73,0.00,,,-99.99,1.000000,,2013-01-21 11:02:00,
2013-01-21 03:12:00,15.0,8.0,-100.00,South,179,7.0,10.0,73,0.00,,,-99.99,1.000000,,2013-01-21 11:12:00,
2013-01-21 03:43:00,14.0,7.0,-100.00,SSE,158,3.0,11.0,74,0.00,,,0.00,1.000000,,2013-01-21 11:43:00,
2013-01-21 03:53:00,14.0,7.0,-100.00,SSE,158,3.0,11.0,74,0.00,,,0.00,1.000000,,2013-01-21 11:53:00,
2013-01-21 04:02:00,14.0,7.0,-100.00,SSE,158,3.0,11.0,74,0.00,,,0.00,1.000000,,2013-01-21 12:02:00,
2013-01-21 04:12:00,14.0,7.0,-100.00,SSE,158,3.0,11.0,74,0.00,,,0.00,1.000000,,2013-01-21 12:12:00,
2013-01-21 04:43:00,15.0,7.0,-100.00,WNW,293,4.0,7.0,71,0.00,,,0.00,1.000000,,2013-01-21 12:43:00,
2013-01-21 04:53:00,15.0,7.0,-100.00,WNW,293,4.0,7.0,71,0.00,,,0.00,1.000000,,2013-01-21 12:53:00,
2013-01-21 05:02:00,15.0,7.0,-100.00,WNW,293,4.0,7.0,71,0.00,,,0.00,1.000000,,2013-01-21 13:02:00,
2013-01-21 05:12:00,15.0,7.0,-100.00,WNW,293,4.0,7.0,71,0.00,,,0.00,1.000000,,2013-01-21 13:12:00,
2013-01-21 05:33:00,15.0,8.0,-100.00,WNW,301,3.0,6.0,73,0.00,,,0.00,1.000000,,2013-01-21 13:33:00,
2013-01-21 05:43:00,15.0,8.0,-100.00,WNW,301,3.0,6.0,73,0.00,,,0.00,1.000000,,2013-01-21 13:43:00,
2013-01-21 05:53:00,15.0,8.0,-100.00,WNW,301,3.0,6.0,73,0.00,,,0.00,1.000000,,2013-01-21 13:53:00,
2013-01-21 06:03:00,15.0,8.0,-100.00,WNW,301,3.0,6.0,73,0.00,,,0.00,1.000000,,2013-01-21 14:03:00,
2013-01-21 06:12:00,15.0,8.0,-100.00,WNW,301,3.0,6.0,73,0.00,,,0.00,1.000000,,2013-01-21 14:12:00,
2013-01-21 06:33:00,13.0,7.0,-100.00,NW,304,3.0,7.0,75,0.00,,,0.00,1.000000,,2013-01-21 14:33:00,
2013-01-21 06:43:00,13.0,7.0,-100.00,NW,304,3.0,7.0,75,0.00,,,0.00,1.000000,,2013-01-21 14:43:00,
2013-01-21 06:53:00,13.0,7.0,-100.00,NW,304,3.0,7.0,75,0.00,,,0.00,1.000000,,2013-01-21 14:53:00,
2013-01-21 07:03:00,13.0,7.0,-100.00,NW,304,3.0,7.0,75,0.00,,,0.00,1.000000,,2013-01-21 15:03:00,
2013-01-21 07:12:00,13.0,7.0,-100.00,NW,304,3.0,7.0,75,0.00,,,0.00,1.000000,,2013-01-21 15:12:00,
2013-01-21 07:33:00,13.0,7.0,-100.00,WNW,302,3.0,7.0,75,0.00,,,0.00,1.000000,,2013-01-21 15:33:00,
2013-01-21 07:43:00,13.0,7.0,-100.00,WNW,302,3.0,7.0,75,0.00,,,0.00,1.000000,,2013-01-21 15:43:00,
2013-01-21 07:53:00,13.0,7.0,-100.00,WNW,302,3.0,7.0,75,0.00,,,0.00,1.000000,,2013-01-21 15:53:00,
2013-01-21 08:03:00,13.0,7.0,-100.00,WNW,302,3.0,7.0,75,0.00,,,0.00,1.000000,,2013-01-21 16:03:00,
2013-01-21 08:11:00,13.0,7.0,-100.00,WNW,302,3.0,7.0,75,0.00,,,0.00,1.000000,,2013-01-21 16:11:00,
2013-01-21 08:33:00,16.0,7.0,-100.00,WNW,291,3.0,7.0,67,0.00,,,0.00,36.000000,,2013-01-21 16:33:00,
2013-01-21 08:43:00,16.0,7.0,-100.00,WNW,291,3.0,7.0,67,0.00,,,0.00,36.000000,,2013-01-21 16:43:00,
2013-01-21 08:53:00,16.0,7.0,-100.00,WNW,291,3.0,7.0,67,0.00,,,0.00,36.000000,,2013-01-21 16:53:00,
2013-01-21 09:02:00,16.0,7.0,-100.00,WNW,291,3.0,7.0,67,0.00,,,0.00,36.000000,,2013-01-21 17:02:00,
2013-01-21 09:12:00,16.0,7.0,-100.00,WNW,291,3.0,7.0,67,0.00,,,0.00,36.000000,,2013-01-21 17:12:00,
2013-01-21 09:33:00,19.0,8.0,-100.00,West,271,4.0,11.0,62,0.00,,,-99.99,182.000000,,2013-01-21 17:33:00,
2013-01-21 09:43:00,19.0,8.0,-100.00,West,271,4.0,11.0,62,0.00,,,-99.99,182.000000,,2013-01-21 17:43:00,
2013-01-21 09:53:00,19.0,8.0,-100.00,West,271,4.0,11.0,62,0.00,,,-99.99,182.000000,,2013-01-21 17:53:00,
2013-01-21 10:02:00,19.0,8.0,-100.00,West,271,4.0,11.0,62,0.00,,,-99.99,182.000000,,2013-01-21 18:02:00,
2013-01-21 10:11:00,19.0,8.0,-100.00,West,271,4.0,11.0,62,0.00,,,-99.99,182.000000,,2013-01-21 18:11:00,
2013-01-21 10:33:00,23.0,10.0,-100.00,West,263,3.0,10.0,56,0.00,,,0.00,310.000000,,2013-01-21 18:33:00,
2013-01-21 10:43:00,23.0,10.0,-100.00,West,263,3.0,10.0,56,0.00,,,0.00,310.000000,,2013-01-21 18:43:00,
2013-01-21 10:53:00,23.0,10.0,-100.00,West,263,3.0,10.0,56,0.00,,,0.00,310.000000,,2013-01-21 18:53:00,
2013-01-21 11:03:00,23.0,10.0,-100.00,West,263,3.0,10.0,56,0.00,,,0.00,310.000000,,2013-01-21 19:03:00,
2013-01-21 11:12:00,23.0,10.0,-100.00,West,263,3.0,10.0,56,0.00,,,0.00,310.000000,,2013-01-21 19:12:00,
2013-01-21 11:43:00,26.0,12.0,-100.00,West,263,5.0,15.0,55,0.00,,,0.00,398.000000,,2013-01-21 19:43:00,
2013-01-21 11:53:00,26.0,12.0,-100.00,West,263,5.0,15.0,55,0.00,,,0.00,398.000000,,2013-01-21 19:53:00,
2013-01-21 12:03:00,26.0,12.0,-100.00,West,263,5.0,15.0,55,0.00,,,0.00,398.000000,,2013-01-21 20:03:00,
2013-01-21 12:12:00,26.0,12.0,-100.00,West,263,5.0,15.0,55,0.00,,,0.00,398.000000,,2013-01-21 20:12:00,
2013-01-21 13:33:00,30.0,14.0,-100.00,SSW,196,10.0,18.0,51,-99.99,,,0.00,423.000000,,2013-01-21 21:33:00,
2013-01-21 13:43:00,30.0,14.0,-100.00,SSW,196,10.0,18.0,51,-99.99,,,0.00,423.000000,,2013-01-21 21:43:00,
2013-01-21 13:53:00,30.0,14.0,-100.00,SSW,196,10.0,18.0,51,-99.99,,,0.00,423.000000,,2013-01-21 21:53:00,
2013-01-21 14:03:00,30.0,14.0,-100.00,SSW,196,10.0,18.0,51,-99.99,,,0.00,423.000000,,2013-01-21 22:03:00,
2013-01-21 14:12:00,30.0,14.0,-100.00,SSW,196,10.0,18.0,51,-99.99,,,0.00,423.000000,,2013-01-21 22:12:00,
2013-01-21 14:33:00,29.0,13.0,-100.00,SSW,197,12.0,22.0,51,0.00,,,0.00,353.000000,,2013-01-21 22:33:00,
2013-01-21 14:43:00,29.0,13.0,-100.00,SSW,197,12.0,22.0,51,0.00,,,0.00,353.000000,,2013-01-21 22:43:00,
2013-01-21 14:53:00,29.0,13.0,-100.00,SSW,197,12.0,22.0,51,0.00,,,0.00,353.000000,,2013-01-21 22:53:00,
2013-01-21 15:03:00,29.0,13.0,-100.00,SSW,197,12.0,22.0,51,0.00,,,0.00,353.000000,,2013-01-21 23:03:00,
2013-01-21 15:12:00,29.0,13.0,-100.00,SSW,197,12.0,22.0,51,0.00,,,0.00,353.000000,,2013-01-21 23:12:00,
2013-01-21 15:33:00,28.0,13.0,-100.00,SSW,205,11.0,19.0,53,0.00,,,0.00,243.000000,,2013-01-21 23:33:00,
2013-01-21 15:43:00,28.0,13.0,-100.00,SSW,205,11.0,19.0,53,0.00,,,0.00,243.000000,,2013-01-21 23:43:00,
2013-01-21 15:53:00,28.0,13.0,-100.00,SSW,205,11.0,19.0,53,0.00,,,0.00,243.000000,,2013-01-21 23:53:00,
2013-01-21 16:02:00,28.0,13.0,-100.00,SSW,205,11.0,19.0,53,0.00,,,0.00,243.000000,,2013-01-22 00:02:00,
2013-01-21 16:12:00,28.0,13.0,-100.00,SSW,205,11.0,19.0,53,0.00,,,0.00,243.000000,,2013-01-22 00:12:00,
2013-01-21 16:33:00,25.0,13.0,-100.00,SW,230,7.0,17.0,60,0.00,,,0.00,110.000000,,2013-01-22 00:33:00,
2013-01-21 16:43:00,25.0,13.0,-100.00,SW,230,7.0,17.0,60,0.00,,,0.00,110.000000,,2013-01-22 00:43:00,
2013-01-21 16:53:00,25.0,13.0,-100.00,SW,230,7.0,17.0,60,0.00,,,0.00,110.000000,,2013-01-22 00:53:00,
2013-01-21 17:02:00,25.0,13.0,-100.00,SW,230,7.0,17.0,60,0.00,,,0.00,110.000000,,2013-01-22 01:02:00,
2013-01-21 17:12:00,25.0,13.0,-100.00,SW,230,7.0,17.0,60,0.00,,,0.00,110.000000,,2013-01-22 01:12:00,
2013-01-21 17:43:00,23.0,12.0,-100.00,SSW,207,6.0,20.0,61,0.00,,,0.00,6.000000,,2013-01-22 01:43:00,
2013-01-21 17:52:00,23.0,12.0,-100.00,SSW,207,6.0,20.0,61,0.00,,,0.00,6.000000,,2013-01-22 01:52:00,
2013-01-21 18:02:00,23.0,12.0,-100.00,SSW,207,6.0,20.0,61,0.00,,,0.00,6.000000,,2013-01-22 02:02:00,
2013-01-21 18:12:00,23.0,12.0,-100.00,SSW,207,6.0,20.0,61,0.00,,,0.00,6.000000,,2013-01-22 02:12:00,
2013-01-21 18:33:00,21.0,11.0,-100.00,SSW,202,6.0,16.0,64,0.00,,,0.00,1.000000,,2013-01-22 02:33:00,
2013-01-21 18:43:00,21.0,11.0,-100.00,SSW,202,6.0,16.0,64,0.00,,,0.00,1.000000,,2013-01-22 02:43:00,
2013-01-21 18:53:00,21.0,11.0,-100.00,SSW,202,6.0,16.0,64,0.00,,,0.00,1.000000,,2013-01-22 02:53:00,
2013-01-21 19:02:00,21.0,11.0,-100.00,SSW,202,6.0,16.0,64,0.00,,,0.00,1.000000,,2013-01-22 03:02:00,
2013-01-21 19:12:00,21.0,11.0,-100.00,SSW,202,6.0,16.0,64,0.00,,,0.00,1.000000,,2013-01-22 03:12:00,
2013-01-21 19:42:00,19.0,10.0,-100.00,SW,235,4.0,9.0,66,0.00,,,0.00,1.000000,,2013-01-22 03:42:00,
2013-01-21 19:52:00,19.0,10.0,-100.00,SW,235,4.0,9.0,66,0.00,,,0.00,1.000000,,2013-01-22 03:52:00,
2013-01-21 20:02:00,19.0,10.0,-100.00,SW,235,4.0,9.0,66,0.00,,,0.00,1.000000,,2013-01-22 04:02:00,
2013-01-21 20:11:00,19.0,10.0,-100.00,SW,235,4.0,9.0,66,0.00,,,0.00,1.000000,,2013-01-22 04:11:00,
2013-01-21 20:33:00,19.0,10.0,-100.00,ENE,68,3.0,7.0,68,0.00,,,0.00,1.000000,,2013-01-22 04:33:00,
2013-01-21 20:42:00,19.0,10.0,-100.00,ENE,68,3.0,7.0,68,0.00,,,0.00,1.000000,,2013-01-22 04:42:00,
2013-01-21 20:52:00,19.0,10.0,-100.00,ENE,68,3.0,7.0,68,0.00,,,0.00,1.000000,,2013-01-22 04:52:00,
2013-01-21 21:03:00,19.0,10.0,-100.00,ENE,68,3.0,7.0,68,0.00,,,0.00,1.000000,,2013-01-22 05:03:00,
2013-01-21 21:12:00,19.0,10.0,-100.00,ENE,68,3.0,7.0,68,0.00,,,0.00,1.000000,,2013-01-22 05:12:00,
2013-01-21 21:43:00,18.0,9.0,-100.00,SW,235,3.0,9.0,68,0.00,,,0.00,1.000000,,2013-01-22 05:43:00,
2013-01-21 21:53:00,18.0,9.0,-100.00,SW,235,3.0,9.0,68,0.00,,,0.00,1.000000,,2013-01-22 05:53:00,
2013-01-21 22:02:00,18.0,9.0,-100.00,SW,235,3.0,9.0,68,0.00,,,0.00,1.000000,,2013-01-22 06:02:00,
2013-01-21 22:12:00,18.0,9.0,-100.00,SW,235,3.0,9.0,68,0.00,,,0.00,1.000000,,2013-01-22 06:12:00,
2013-01-21 22:33:00,17.0,8.0,-100.00,ENE,63,2.0,6.0,68,0.00,,,0.00,1.000000,,2013-01-22 06:33:00,
2013-01-21 22:43:00,17.0,8.0,-100.00,ENE,63,2.0,6.0,68,0.00,,,0.00,1.000000,,2013-01-22 06:43:00,
2013-01-21 22:52:00,17.0,8.0,-100.00,ENE,63,2.0,6.0,68,0.00,,,0.00,1.000000,,2013-01-22 06:52:00,
2013-01-21 23:02:00,17.0,8.0,-100.00,ENE,63,2.0,6.0,68,0.00,,,0.00,1.000000,,2013-01-22 07:02:00,
2013-01-21 23:11:00,17.0,8.0,-100.00,ENE,63,2.0,6.0,68,0.00,,,0.00,1.000000,,2013-01-22 07:11:00,
2013-01-21 23:33:00,17.0,9.0,-100.00,NW,311,2.0,6.0,69,0.00,,,0.00,1.000000,,2013-01-22 07:33:00,
2013-01-21 23:43:00,17.0,9.0,-100.00,NW,311,2.0,6.0,69,0.00,,,0.00,1.000000,,2013-01-22 07:43:00,
2013-01-21 23:52:00,17.0,9.0,-100.00,NW,311,2.0,6.0,69,0.00,,,0.00,1.000000,,2013-01-22 07:52:00,